Time;durP1;ratioP1;P1;durP2;ratioP2;P2;SDS_P1;SDS_P2;PMS_P1;PMS_P2;Temp;Humidity;BMP_temperature;BMP_pressure;BME280_temperature;BME280_humidity;BME280_pressure;Samples;Min_cycle;Max_cycle;Signal;HPM_P1;HPM_P2
2022/09/16 00:01:32;;;;;;;4.63;0.80;;;13.30;99.90;;;;;;5112577;27;39069;-61
2022/09/16 00:03:59;;;;;;;6.97;1.00;;;13.30;99.90;;;;;;5112265;27;38599;-59
2022/09/16 00:06:28;;;;;;;3.75;0.88;;;13.30;99.90;;;;;;5113471;27;37330;-60
2022/09/16 00:08:57;;;;;;;6.07;0.95;;;13.30;99.90;;;;;;5113322;27;37592;-61
2022/09/16 00:11:24;;;;;;;4.00;0.90;;;13.30;99.90;;;;;;5113864;27;39060;-61
2022/09/16 00:13:52;;;;;;;8.00;1.52;;;13.30;99.90;;;;;;5113087;27;38710;-61
2022/09/16 00:16:22;;;;;;;5.15;0.80;;;13.30;99.90;;;;;;5113369;27;35381;-61
2022/09/16 00:18:54;;;;;;;5.10;1.13;;;13.30;99.90;;;;;;5111846;27;37583;-61
2022/09/16 00:21:22;;;;;;;4.47;0.65;;;13.30;99.90;;;;;;5113905;27;38375;-61
2022/09/16 00:23:49;;;;;;;5.13;0.82;;;13.20;99.90;;;;;;5113478;27;38303;-61
2022/09/16 00:26:17;;;;;;;4.32;0.75;;;13.30;99.90;;;;;;5113754;27;36359;-61
2022/09/16 00:28:44;;;;;;;5.65;1.40;;;13.20;99.90;;;;;;5114388;27;37571;-59
2022/09/16 00:31:11;;;;;;;3.92;0.55;;;13.30;99.90;;;;;;5113286;27;38137;-59
2022/09/16 00:33:40;;;;;;;6.95;0.93;;;13.30;99.90;;;;;;5112814;27;36440;-59
2022/09/16 00:36:09;;;;;;;5.35;0.60;;;13.30;99.90;;;;;;5112788;27;36388;-60
2022/09/16 00:38:36;;;;;;;5.43;0.70;;;13.30;99.90;;;;;;5112820;27;36872;-61
2022/09/16 00:41:04;;;;;;;1.95;0.57;;;13.30;99.90;;;;;;5113410;27;36955;-61
2022/09/16 00:43:51;;;;;;;3.83;0.70;;;13.30;99.90;;;;;;5112716;27;39193;-60
2022/09/16 00:46:21;;;;;;;4.95;0.85;;;13.30;99.90;;;;;;5113081;27;36833;-60
2022/09/16 00:48:50;;;;;;;5.63;0.95;;;13.20;99.90;;;;;;5111819;27;37388;-61
2022/09/16 00:51:19;;;;;;;7.30;0.77;;;13.30;99.90;;;;;;5112920;27;38785;-59
2022/09/16 00:53:50;;;;;;;4.93;0.82;;;13.20;99.90;;;;;;5110122;27;37882;-59
2022/09/16 00:56:22;;;;;;;4.85;0.80;;;13.30;99.90;;;;;;5109773;27;36728;-59
2022/09/16 00:58:55;;;;;;;4.65;0.90;;;13.20;99.90;;;;;;5112888;27;37053;-59
2022/09/16 01:01:22;;;;;;;3.35;0.82;;;13.30;99.90;;;;;;5112275;27;37925;-59
2022/09/16 01:03:54;;;;;;;3.15;0.70;;;13.20;99.90;;;;;;5111981;27;37683;-59
2022/09/16 01:06:22;;;;;;;4.50;0.80;;;13.20;99.90;;;;;;5112074;27;36747;-60
2022/09/16 01:08:51;;;;;;;4.65;0.88;;;13.20;99.90;;;;;;5111848;27;37445;-59
2022/09/16 01:11:18;;;;;;;4.53;1.02;;;13.10;99.90;;;;;;5116355;27;39929;-59
2022/09/16 01:13:47;;;;;;;4.30;0.80;;;13.20;99.90;;;;;;5115705;27;37746;-59
2022/09/16 01:16:22;;;;;;;6.43;0.90;;;13.30;99.90;;;;;;5115428;27;36445;-59
2022/09/16 01:19:00;;;;;;;5.65;1.13;;;13.20;99.90;;;;;;5116590;27;37267;-60
2022/09/16 01:21:38;;;;;;;7.15;0.88;;;13.20;99.90;;;;;;5116754;27;38424;-60
2022/09/16 01:24:48;;;;;;;7.93;0.85;;;13.20;99.90;;;;;;5115780;27;36548;-60
2022/09/16 01:27:46;;;;;;;5.38;1.20;;;13.20;99.90;;;;;;5116288;27;36744;-59
2022/09/16 01:30:47;;;;;;;2.15;0.73;;;13.10;99.90;;;;;;5114332;27;38107;-59
2022/09/16 01:33:23;;;;;;;5.80;0.75;;;13.10;99.90;;;;;;5114548;27;38248;-59
2022/09/16 01:36:09;;;;;;;3.70;0.80;;;13.10;99.90;;;;;;5116459;27;39165;-61
2022/09/16 01:38:53;;;;;;;3.50;0.90;;;13.10;99.90;;;;;;5115307;27;37209;-61
2022/09/16 01:41:28;;;;;;;2.38;0.40;;;13.00;99.90;;;;;;5115172;27;37545;-61
2022/09/16 01:44:00;;;;;;;4.05;1.10;;;13.00;99.90;;;;;;5115104;27;39118;-61
2022/09/16 01:46:41;;;;;;;3.97;0.70;;;13.00;99.90;;;;;;5113747;27;36566;-60
2022/09/16 01:49:17;;;;;;;5.32;0.60;;;13.00;99.90;;;;;;5116188;27;36734;-60
2022/09/16 01:51:51;;;;;;;5.68;0.75;;;13.00;99.90;;;;;;5116328;27;37573;-61
2022/09/16 01:54:25;;;;;;;4.82;0.70;;;13.00;99.90;;;;;;5115601;27;38735;-61
2022/09/16 01:56:58;;;;;;;1.65;0.50;;;13.00;99.90;;;;;;5115749;27;37815;-61
2022/09/16 01:59:31;;;;;;;4.97;0.68;;;13.00;99.90;;;;;;5116046;27;36619;-61
2022/09/16 02:02:02;;;;;;;4.35;1.05;;;13.00;99.90;;;;;;5115138;27;39041;-60
2022/09/16 02:04:33;;;;;;;3.30;0.80;;;13.00;99.90;;;;;;5115670;27;38554;-59
2022/09/16 02:07:04;;;;;;;5.40;0.63;;;13.00;99.90;;;;;;5114851;27;38259;-58
2022/09/16 02:09:37;;;;;;;6.72;1.00;;;13.00;99.90;;;;;;5114058;27;36481;-59
2022/09/16 02:12:09;;;;;;;5.88;1.02;;;13.00;99.90;;;;;;5114899;27;36472;-59
2022/09/16 02:14:42;;;;;;;5.63;0.90;;;13.00;99.90;;;;;;5115836;27;40254;-60
2022/09/16 02:17:12;;;;;;;5.63;0.70;;;13.00;99.90;;;;;;5115255;27;38962;-60
2022/09/16 02:19:43;;;;;;;4.53;0.98;;;12.90;99.90;;;;;;5115346;27;36664;-60
2022/09/16 02:22:13;;;;;;;7.93;1.27;;;12.90;99.90;;;;;;5114538;27;39022;-60
2022/09/16 02:24:43;;;;;;;6.18;0.93;;;12.90;99.90;;;;;;5114389;27;40214;-60
2022/09/16 02:27:15;;;;;;;4.75;0.90;;;12.90;99.90;;;;;;5114879;27;36657;-61
2022/09/16 02:29:48;;;;;;;3.97;0.80;;;12.90;99.90;;;;;;5114358;27;37247;-59
2022/09/16 02:32:20;;;;;;;5.10;0.90;;;12.80;99.90;;;;;;5115083;27;38546;-59
2022/09/16 02:34:50;;;;;;;4.13;0.90;;;12.90;99.90;;;;;;5114499;27;38277;-60
2022/09/16 02:37:22;;;;;;;10.57;1.50;;;12.80;99.90;;;;;;5114982;27;37872;-60
2022/09/16 02:39:55;;;;;;;6.65;1.00;;;12.80;99.90;;;;;;5114090;27;37639;-60
2022/09/16 02:42:22;;;;;;;8.20;1.05;;;12.80;99.90;;;;;;5115413;27;36533;-60
2022/09/16 02:44:50;;;;;;;5.38;0.93;;;12.80;99.90;;;;;;5114229;27;38106;-59
2022/09/16 02:47:30;;;;;;;5.38;0.80;;;12.80;99.90;;;;;;5114993;27;37722;-59
2022/09/16 02:50:01;;;;;;;9.02;1.98;;;12.80;99.90;;;;;;5113673;27;37290;-59
2022/09/16 02:52:36;;;;;;;6.72;0.98;;;12.80;99.90;;;;;;5113832;27;36382;-59
2022/09/16 02:55:12;;;;;;;5.40;0.95;;;12.80;99.90;;;;;;5114397;27;39110;-59
2022/09/16 02:57:40;;;;;;;6.72;1.05;;;12.80;99.90;;;;;;5114001;27;38220;-60
2022/09/16 03:00:09;;;;;;;7.80;1.75;;;12.90;99.90;;;;;;5114722;27;37295;-61
2022/09/16 03:02:37;;;;;;;6.50;1.70;;;12.80;99.90;;;;;;5113455;27;37502;-60
2022/09/16 03:05:05;;;;;;;5.63;1.23;;;12.90;99.90;;;;;;5115576;27;38323;-59
2022/09/16 03:07:33;;;;;;;7.03;1.40;;;12.80;99.90;;;;;;5114145;27;38360;-59
2022/09/16 03:10:01;;;;;;;7.25;1.13;;;12.90;99.90;;;;;;5113330;27;37788;-59
2022/09/16 03:12:48;;;;;;;10.57;1.17;;;12.90;99.90;;;;;;5113213;27;35549;-59
2022/09/16 03:15:41;;;;;;;6.95;1.25;;;12.80;99.90;;;;;;5114291;27;37142;-58
2022/09/16 03:18:40;;;;;;;5.22;1.15;;;12.80;99.90;;;;;;5109904;27;37930;-58
2022/09/16 03:21:16;;;;;;;7.63;1.05;;;12.80;99.90;;;;;;5114216;27;36502;-58
2022/09/16 03:23:49;;;;;;;6.30;1.30;;;12.80;99.90;;;;;;5112672;27;37818;-59
2022/09/16 03:26:26;;;;;;;6.30;1.05;;;12.70;99.90;;;;;;5113690;27;39221;-58
2022/09/16 03:29:05;;;;;;;6.93;1.58;;;12.60;99.90;;;;;;5114733;27;37825;-58
2022/09/16 03:31:38;;;;;;;7.35;1.15;;;12.70;99.90;;;;;;5113130;27;37289;-58
2022/09/16 03:34:09;;;;;;;;;;;12.70;99.90;;;;;;5114448;27;38358;-60
2022/09/16 03:36:42;;;;;;;8.95;1.30;;;12.60;99.90;;;;;;5112829;27;37144;-58
2022/09/16 03:39:11;;;;;;;7.70;1.13;;;12.60;99.90;;;;;;5113933;27;39616;-58
2022/09/16 03:41:39;;;;;;;6.75;1.35;;;12.50;99.90;;;;;;5112622;27;36554;-60
2022/09/16 03:44:07;;;;;;;8.10;0.90;;;12.50;99.90;;;;;;5113701;27;38866;-60
2022/09/16 03:46:34;;;;;;;7.63;1.15;;;12.50;99.90;;;;;;5113251;27;36992;-61
2022/09/16 03:49:01;;;;;;;5.93;1.08;;;12.50;99.90;;;;;;5113882;27;38984;-60
2022/09/16 03:51:30;;;;;;;8.70;1.48;;;12.50;99.90;;;;;;5112350;27;36663;-61
2022/09/16 03:53:57;;;;;;;8.13;1.63;;;12.50;99.90;;;;;;5113942;27;38188;-60
2022/09/16 03:56:25;;;;;;;6.60;1.33;;;12.50;99.90;;;;;;5112852;27;36842;-61
2022/09/16 03:58:52;;;;;;;7.97;1.95;;;12.40;99.90;;;;;;5113733;27;37979;-60
2022/09/16 04:01:20;;;;;;;8.95;1.88;;;12.50;99.90;;;;;;5112239;27;37210;-59
2022/09/16 04:03:47;;;;;;;9.60;2.05;;;12.40;99.90;;;;;;5113365;27;38302;-59
2022/09/16 04:06:14;;;;;;;6.13;1.40;;;12.40;99.90;;;;;;5114078;27;38606;-60
2022/09/16 04:08:43;;;;;;;8.60;1.25;;;12.40;99.90;;;;;;5113326;27;38770;-60
2022/09/16 04:11:11;;;;;;;8.50;1.15;;;12.30;99.90;;;;;;5112911;27;37532;-60
2022/09/16 04:13:38;;;;;;;7.57;1.17;;;12.40;99.90;;;;;;5112543;27;36383;-61
2022/09/16 04:16:06;;;;;;;7.07;0.98;;;12.30;99.90;;;;;;5113448;27;38229;-59
2022/09/16 04:18:33;;;;;;;7.05;0.80;;;12.30;99.90;;;;;;5113121;27;38433;-59
2022/09/16 04:21:03;;;;;;;5.68;0.98;;;12.30;99.90;;;;;;5113841;27;36496;-60
2022/09/16 04:23:31;;;;;;;5.63;0.85;;;12.30;99.90;;;;;;5113400;27;37487;-60
2022/09/16 04:26:00;;;;;;;6.80;0.95;;;12.30;99.90;;;;;;5112245;27;39490;-60
2022/09/16 04:28:30;;;;;;;7.13;1.10;;;12.30;99.90;;;;;;5112592;27;38205;-60
2022/09/16 04:30:59;;;;;;;6.28;1.17;;;12.30;99.90;;;;;;5113593;27;35448;-58
2022/09/16 04:33:28;;;;;;;6.75;1.10;;;12.20;99.90;;;;;;5113341;27;39251;-59
2022/09/16 04:36:03;;;;;;;6.28;1.08;;;12.20;99.90;;;;;;5111719;27;38947;-58
2022/09/16 04:38:30;;;;;;;5.82;1.13;;;12.20;99.90;;;;;;5112875;27;37168;-60
2022/09/16 04:41:02;;;;;;;5.10;1.30;;;12.20;99.90;;;;;;5112537;27;35377;-60
2022/09/16 04:43:30;;;;;;;9.05;1.55;;;12.20;99.90;;;;;;5112121;27;37639;-60
2022/09/16 04:45:57;;;;;;;9.73;1.88;;;12.20;99.90;;;;;;5112771;27;36913;-60
2022/09/16 04:48:25;;;;;;;12.20;1.50;;;12.20;99.90;;;;;;5111879;27;38189;-60
2022/09/16 04:50:52;;;;;;;4.75;0.88;;;12.20;99.90;;;;;;5112172;27;36652;-60
2022/09/16 04:53:20;;;;;;;9.93;1.10;;;12.20;99.90;;;;;;5112403;27;36345;-60
2022/09/16 04:55:48;;;;;;;9.00;1.65;;;12.20;99.90;;;;;;5112705;27;38408;-60
2022/09/16 04:58:16;;;;;;;10.88;1.23;;;12.30;99.90;;;;;;5112487;27;37620;-59
2022/09/16 05:00:44;;;;;;;9.48;1.50;;;12.20;99.90;;;;;;5112541;27;36402;-60
2022/09/16 05:03:11;;;;;;;9.25;1.52;;;12.30;99.90;;;;;;5112696;27;38662;-59
2022/09/16 05:05:38;;;;;;;7.85;1.50;;;12.20;99.90;;;;;;5111108;27;39192;-61
2022/09/16 05:08:06;;;;;;;10.25;1.27;;;12.30;99.90;;;;;;5112806;27;37743;-61
2022/09/16 05:10:34;;;;;;;8.15;1.08;;;12.20;99.90;;;;;;5111311;27;37407;-61
2022/09/16 05:13:01;;;;;;;9.52;1.35;;;12.30;99.90;;;;;;5112116;27;36324;-59
2022/09/16 05:15:30;;;;;;;9.27;1.50;;;12.20;99.90;;;;;;5112575;27;37974;-58
2022/09/16 05:17:57;;;;;;;7.85;1.45;;;12.20;99.90;;;;;;5112939;27;37618;-59
2022/09/16 05:20:25;;;;;;;10.77;1.70;;;12.20;99.90;;;;;;5112373;27;36546;-58
2022/09/16 05:22:52;;;;;;;9.40;1.50;;;12.10;99.90;;;;;;5112713;27;37262;-60
2022/09/16 05:25:19;;;;;;;10.95;2.38;;;12.10;99.90;;;;;;5111298;27;38021;-60
2022/09/16 05:27:47;;;;;;;9.82;1.35;;;12.10;99.90;;;;;;5112704;27;36602;-60
2022/09/16 05:30:16;;;;;;;10.73;1.65;;;12.10;99.90;;;;;;5112632;27;36954;-61
2022/09/16 05:32:44;;;;;;;8.57;1.15;;;12.10;99.90;;;;;;5112246;27;36420;-60
2022/09/16 05:35:12;;;;;;;5.80;1.30;;;12.00;99.90;;;;;;5110991;27;36974;-58
2022/09/16 05:37:39;;;;;;;9.13;1.33;;;12.10;99.90;;;;;;5110974;27;38615;-58
2022/09/16 05:40:08;;;;;;;12.88;2.15;;;12.10;99.90;;;;;;5110823;27;36679;-58
2022/09/16 05:42:35;;;;;;;7.82;1.50;;;12.10;99.90;;;;;;5113215;27;37659;-58
2022/09/16 05:45:03;;;;;;;14.00;1.75;;;12.10;99.90;;;;;;5111597;27;36816;-60
2022/09/16 05:47:30;;;;;;;10.02;1.60;;;12.00;99.90;;;;;;5110918;27;38368;-60
2022/09/16 05:49:59;;;;;;;9.15;1.58;;;12.10;99.90;;;;;;5111940;27;37456;-60
2022/09/16 05:52:27;;;;;;;10.65;1.83;;;12.10;99.90;;;;;;5111808;27;37724;-60
2022/09/16 05:54:54;;;;;;;5.43;1.00;;;12.10;99.90;;;;;;5111433;27;38114;-60
2022/09/16 05:57:22;;;;;;;9.45;1.45;;;12.10;99.90;;;;;;5115244;27;38103;-60
2022/09/16 05:59:50;;;;;;;9.45;1.90;;;12.10;99.90;;;;;;5115538;27;36543;-60
2022/09/16 06:02:18;;;;;;;6.80;1.02;;;12.10;99.90;;;;;;5114825;27;20078;-58
2022/09/16 06:04:46;;;;;;;8.40;1.17;;;12.10;99.90;;;;;;5115770;27;37992;-59
2022/09/16 06:07:16;;;;;;;5.68;0.95;;;12.20;99.90;;;;;;5115508;27;37641;-58
2022/09/16 06:09:43;;;;;;;15.43;1.75;;;12.20;99.90;;;;;;5115295;27;37234;-60
2022/09/16 06:12:11;;;;;;;11.40;1.52;;;12.20;99.90;;;;;;5114469;27;36411;-58
2022/09/16 06:14:38;;;;;;;7.60;1.45;;;12.20;99.90;;;;;;5115491;27;38390;-58
2022/09/16 06:17:05;;;;;;;10.90;1.70;;;12.30;99.90;;;;;;5114759;27;37879;-58
2022/09/16 06:19:32;;;;;;;5.75;1.30;;;12.30;99.90;;;;;;5115292;27;35287;-58
2022/09/16 06:22:00;;;;;;;8.98;1.33;;;12.20;99.90;;;;;;5115673;27;37941;-58
2022/09/16 06:24:28;;;;;;;11.20;1.70;;;12.30;99.90;;;;;;5115447;27;38000;-58
2022/09/16 06:26:56;;;;;;;7.53;1.20;;;12.30;99.90;;;;;;5115644;27;38553;-60
2022/09/16 06:29:23;;;;;;;9.50;1.88;;;12.30;99.90;;;;;;5115035;27;36398;-60
2022/09/16 06:31:50;;;;;;;8.10;1.00;;;12.30;99.90;;;;;;5113833;27;37172;-58
2022/09/16 06:34:18;;;;;;;11.43;1.33;;;12.40;99.90;;;;;;5113838;27;36818;-58
2022/09/16 06:36:45;;;;;;;7.57;1.30;;;12.40;99.90;;;;;;5113669;27;38682;-59
2022/09/16 06:39:14;;;;;;;8.13;1.13;;;12.50;99.90;;;;;;5114398;27;36451;-58
2022/09/16 06:41:43;;;;;;;8.77;1.80;;;12.60;99.90;;;;;;5114517;27;38513;-58
2022/09/16 06:44:11;;;;;;;9.40;2.22;;;12.60;99.90;;;;;;5114470;27;39045;-58
2022/09/16 06:46:38;;;;;;;6.07;1.17;;;12.70;99.90;;;;;;5112735;27;38066;-60
2022/09/16 06:49:06;;;;;;;9.82;1.77;;;12.80;99.90;;;;;;5114357;27;35385;-61
2022/09/16 06:51:34;;;;;;;10.77;1.67;;;12.80;99.90;;;;;;5114570;27;37603;-60
2022/09/16 06:54:03;;;;;;;9.40;1.35;;;12.90;99.90;;;;;;5114291;27;39370;-61
2022/09/16 06:56:32;;;;;;;10.00;1.95;;;12.90;99.90;;;;;;5113300;27;36511;-60
2022/09/16 06:59:01;;;;;;;11.43;1.88;;;13.00;99.90;;;;;;5113490;27;36470;-60
2022/09/16 07:01:30;;;;;;;8.95;1.38;;;13.00;99.90;;;;;;5114083;27;38079;-61
2022/09/16 07:03:59;;;;;;;6.13;1.17;;;13.00;99.90;;;;;;5114210;27;39840;-61
2022/09/16 07:06:29;;;;;;;11.85;1.85;;;13.20;99.90;;;;;;5113994;27;37879;-60
2022/09/16 07:08:56;;;;;;;13.07;1.73;;;13.20;99.90;;;;;;5113268;27;35429;-61
2022/09/16 07:11:24;;;;;;;9.88;1.80;;;13.20;99.90;;;;;;5113927;27;38824;-61
2022/09/16 07:13:52;;;;;;;10.63;2.10;;;13.20;99.90;;;;;;5113533;27;39349;-60
2022/09/16 07:16:22;;;;;;;13.25;3.53;;;13.20;99.90;;;;;;5114139;27;39162;-58
2022/09/16 07:18:53;;;;;;;12.15;3.03;;;13.20;99.90;;;;;;5114160;27;39126;-58
2022/09/16 07:21:23;;;;;;;13.57;3.67;;;13.30;99.90;;;;;;5113631;27;37639;-59
2022/09/16 07:23:51;;;;;;;16.35;3.67;;;13.40;99.90;;;;;;5114279;27;38039;-59
2022/09/16 07:26:20;;;;;;;14.50;3.10;;;13.30;99.90;;;;;;5111235;27;36618;-59
2022/09/16 07:28:50;;;;;;;14.52;3.80;;;13.40;99.90;;;;;;5114146;27;35316;-58
2022/09/16 07:31:18;;;;;;;15.48;3.75;;;13.50;99.90;;;;;;5112309;27;37564;-58
2022/09/16 07:33:49;;;;;;;11.35;2.85;;;13.50;99.90;;;;;;5113501;27;38200;-58
2022/09/16 07:36:19;;;;;;;13.70;2.83;;;13.60;99.90;;;;;;5113404;27;37756;-61
2022/09/16 07:38:47;;;;;;;12.60;2.33;;;13.70;99.90;;;;;;5113608;27;36709;-60
2022/09/16 07:41:16;;;;;;;12.23;2.83;;;13.70;99.90;;;;;;5113418;27;37855;-61
2022/09/16 07:43:44;;;;;;;12.45;2.17;;;13.80;99.90;;;;;;5113451;27;36910;-58
2022/09/16 07:46:15;;;;;;;11.07;2.35;;;13.80;99.90;;;;;;5112999;27;37888;-61
2022/09/16 07:48:43;;;;;;;9.63;2.97;;;13.80;99.90;;;;;;5113910;27;37269;-61
2022/09/16 07:51:14;;;;;;;9.63;1.88;;;13.70;99.90;;;;;;5112565;27;37583;-61
2022/09/16 07:53:42;;;;;;;12.63;2.92;;;13.60;99.90;;;;;;5112420;27;37928;-61
2022/09/16 07:56:11;;;;;;;11.20;2.55;;;13.70;99.90;;;;;;5113289;27;36505;-60
2022/09/16 07:58:39;;;;;;;14.00;2.80;;;13.70;99.90;;;;;;5111583;27;36746;-60
2022/09/16 08:01:07;;;;;;;10.85;2.65;;;13.70;99.90;;;;;;5112302;27;39293;-58
2022/09/16 08:03:36;;;;;;;11.10;2.63;;;13.70;99.90;;;;;;5112566;27;37776;-60
2022/09/16 08:06:05;;;;;;;15.45;2.58;;;13.70;99.90;;;;;;5112085;27;37621;-58
2022/09/16 08:08:34;;;;;;;12.52;2.70;;;13.70;99.90;;;;;;5111402;27;36510;-58
2022/09/16 08:11:02;;;;;;;14.75;3.00;;;13.70;99.90;;;;;;5112695;27;37517;-58
2022/09/16 08:13:31;;;;;;;15.85;2.40;;;13.80;99.90;;;;;;5113461;27;38046;-61
2022/09/16 08:16:01;;;;;;;14.52;3.33;;;13.90;99.90;;;;;;5112094;27;39997;-61
2022/09/16 08:18:29;;;;;;;14.07;2.10;;;13.90;99.90;;;;;;5112665;27;37373;-61
2022/09/16 08:20:56;;;;;;;13.73;2.50;;;14.00;99.90;;;;;;5112438;27;38567;-61
2022/09/16 08:23:23;;;;;;;13.57;2.28;;;14.00;99.90;;;;;;5112179;27;40134;-61
2022/09/16 08:25:58;;;;;;;10.80;2.85;;;14.10;99.90;;;;;;5112366;27;38631;-61
2022/09/16 08:28:26;;;;;;;12.30;1.95;;;14.20;99.90;;;;;;5113192;27;37331;-61
2022/09/16 08:30:54;;;;;;;13.43;2.60;;;14.20;99.90;;;;;;5112347;27;40515;-58
2022/09/16 08:33:24;;;;;;;13.00;2.05;;;14.20;99.90;;;;;;5112417;27;39128;-58
2022/09/16 08:35:59;;;;;;;10.02;1.70;;;14.40;99.90;;;;;;5110110;27;38120;-58
2022/09/16 08:38:27;;;;;;;9.80;1.80;;;14.40;99.90;;;;;;5113567;27;35560;-58
2022/09/16 08:41:06;;;;;;;11.57;2.25;;;14.50;99.90;;;;;;5112337;27;36396;-58
2022/09/16 08:43:39;;;;;;;10.45;1.70;;;14.60;99.90;;;;;;5112416;27;39382;-58
2022/09/16 08:46:15;;;;;;;12.17;3.03;;;14.70;99.90;;;;;;5112760;27;36609;-58
2022/09/16 08:48:48;;;;;;;14.43;1.98;;;14.70;99.90;;;;;;5112950;27;37378;-61
2022/09/16 08:51:19;;;;;;;7.65;1.65;;;14.80;99.90;;;;;;5112813;27;37524;-61
2022/09/16 08:53:54;;;;;;;7.47;1.48;;;14.90;99.80;;;;;;5111422;27;39445;-59
2022/09/16 08:56:26;;;;;;;10.00;1.65;;;15.00;99.40;;;;;;5112782;27;36778;-58
2022/09/16 08:58:56;;;;;;;12.93;1.98;;;15.00;98.80;;;;;;5111845;27;37187;-58
2022/09/16 09:01:32;;;;;;;11.63;2.75;;;15.10;98.70;;;;;;5111640;27;37678;-58
2022/09/16 09:04:00;;;;;;;13.50;2.38;;;15.20;98.20;;;;;;5112683;27;38579;-61
2022/09/16 09:06:45;;;;;;;13.75;2.25;;;15.20;97.80;;;;;;5112249;27;37591;-61
2022/09/16 09:09:27;;;;;;;13.43;2.20;;;15.10;97.80;;;;;;5112728;27;37235;-61
2022/09/16 09:12:04;;;;;;;13.38;2.20;;;15.10;97.90;;;;;;5112591;27;36275;-61
2022/09/16 09:14:45;;;;;;;10.50;2.20;;;15.20;97.80;;;;;;5112201;27;38333;-61
2022/09/16 09:17:19;;;;;;;14.38;3.03;;;15.30;98.20;;;;;;5111869;27;38586;-58
2022/09/16 09:20:00;;;;;;;13.43;2.17;;;15.40;98.40;;;;;;5112225;27;36758;-61
2022/09/16 09:22:40;;;;;;;14.57;1.77;;;15.50;97.70;;;;;;5112028;27;38698;-61
2022/09/16 09:25:22;;;;;;;16.13;2.38;;;15.60;96.70;;;;;;5111518;27;38114;-58
2022/09/16 09:28:00;;;;;;;13.48;2.10;;;15.60;96.50;;;;;;5110788;27;38390;-58
2022/09/16 09:30:30;;;;;;;9.98;1.95;;;15.50;96.60;;;;;;5113313;27;36479;-58
2022/09/16 09:33:13;;;;;;;8.38;1.50;;;15.50;96.70;;;;;;5115139;27;38250;-61
2022/09/16 09:35:55;;;;;;;9.32;1.42;;;15.50;96.80;;;;;;5116277;27;38647;-61
2022/09/16 09:38:50;;;;;;;12.07;1.80;;;15.70;97.00;;;;;;5115816;27;40656;-58
2022/09/16 09:41:25;;;;;;;11.88;2.17;;;15.80;97.10;;;;;;5113833;27;37321;-58
2022/09/16 09:43:58;;;;;;;8.45;1.77;;;15.90;96.90;;;;;;5115746;27;39268;-58
2022/09/16 09:46:29;;;;;;;;;;;16.10;96.80;;;;;;5115726;27;38203;-58
2022/09/16 09:49:00;;;;;;;11.32;1.55;;;16.00;94.00;;;;;;5114735;27;38559;-58
2022/09/16 09:51:33;;;;;;;10.13;1.58;;;16.00;95.80;;;;;;5115581;27;34964;-58
2022/09/16 09:54:04;;;;;;;8.35;1.58;;;16.00;95.60;;;;;;5115446;27;37698;-59
2022/09/16 09:56:35;;;;;;;7.45;1.45;;;16.10;96.00;;;;;;5114176;27;37619;-58
2022/09/16 09:59:25;;;;;;;10.68;1.75;;;16.20;95.40;;;;;;5115429;27;37459;-58
2022/09/16 10:01:54;;;;;;;9.73;2.63;;;16.30;94.90;;;;;;5115234;27;36532;-58
2022/09/16 10:04:22;;;;;;;9.10;1.92;;;16.40;95.00;;;;;;5116327;27;38747;-62
2022/09/16 10:06:52;;;;;;;12.95;1.85;;;16.60;95.10;;;;;;5115353;27;38248;-61
2022/09/16 10:09:21;;;;;;;8.65;1.67;;;16.70;95.20;;;;;;5115397;27;37832;-61
2022/09/16 10:11:51;;;;;;;9.65;1.80;;;16.80;95.60;;;;;;5114085;27;35397;-61
2022/09/16 10:14:30;;;;;;;9.77;1.77;;;16.80;95.00;;;;;;5115435;27;37428;-62
2022/09/16 10:17:01;;;;;;;6.95;1.20;;;16.80;93.90;;;;;;5115232;27;38117;-58
2022/09/16 10:19:31;;;;;;;5.45;0.90;;;16.90;93.30;;;;;;5113983;27;40343;-59
2022/09/16 10:22:10;;;;;;;8.15;1.58;;;16.90;92.10;;;;;;5115101;27;36544;-58
2022/09/16 10:24:39;;;;;;;8.18;1.73;;;17.00;90.90;;;;;;5113771;27;37639;-61
2022/09/16 10:27:20;;;;;;;13.88;2.40;;;17.10;91.00;;;;;;5114810;27;36976;-61
2022/09/16 10:30:02;;;;;;;11.27;1.60;;;17.20;91.00;;;;;;5115256;27;37921;-61
2022/09/16 10:32:30;;;;;;;8.25;1.52;;;17.10;91.60;;;;;;5114410;27;36859;-62
2022/09/16 10:34:57;;;;;;;9.15;2.13;;;17.00;91.50;;;;;;5115365;27;38501;-61
2022/09/16 10:37:26;;;;;;;10.48;2.20;;;16.90;91.60;;;;;;5114080;27;38015;-61
2022/09/16 10:39:57;;;;;;;11.63;1.65;;;16.90;91.60;;;;;;5113280;27;36674;-61
2022/09/16 10:42:26;;;;;;;13.38;1.50;;;17.00;91.50;;;;;;5113932;27;37627;-61
2022/09/16 10:44:59;;;;;;;8.73;1.42;;;17.10;91.60;;;;;;5114289;27;38940;-59
2022/09/16 10:47:28;;;;;;;12.57;2.10;;;17.20;91.80;;;;;;5114253;27;38943;-61
2022/09/16 10:50:00;;;;;;;9.15;1.85;;;17.10;91.50;;;;;;5113293;27;37840;-61
2022/09/16 10:52:29;;;;;;;10.68;1.58;;;17.00;90.90;;;;;;5113618;27;40002;-61
2022/09/16 10:54:57;;;;;;;6.53;1.52;;;16.80;90.30;;;;;;5113494;27;38310;-61
2022/09/16 10:57:28;;;;;;;13.60;1.98;;;16.80;91.30;;;;;;5113298;27;38169;-58
2022/09/16 11:00:05;;;;;;;7.45;1.23;;;16.90;92.00;;;;;;5114449;27;39089;-58
2022/09/16 11:02:52;;;;;;;8.82;1.90;;;17.10;91.40;;;;;;5112489;27;36713;-58
2022/09/16 11:05:29;;;;;;;10.23;1.45;;;17.40;91.30;;;;;;5112766;27;37446;-61
2022/09/16 11:08:07;;;;;;;11.43;2.00;;;17.50;90.80;;;;;;5111752;27;38888;-61
2022/09/16 11:10:40;;;;;;;15.18;2.90;;;17.60;91.30;;;;;;5113320;27;38512;-61
2022/09/16 11:13:19;;;;;;;;;;;17.60;92.00;;;;;;5113535;27;35085;-61
2022/09/16 11:16:04;;;;;;;11.15;1.83;;;17.40;89.00;;;;;;5113372;27;37669;-61
2022/09/16 11:18:44;;;;;;;14.48;2.75;;;17.20;88.60;;;;;;5112698;27;38815;-61
2022/09/16 11:21:30;;;;;;;10.70;1.83;;;17.00;89.00;;;;;;5112600;27;38036;-61
2022/09/16 11:24:20;;;;;;;9.88;2.10;;;17.00;89.00;;;;;;5112879;27;37536;-61
2022/09/16 11:26:54;;;;;;;9.07;1.63;;;17.00;88.30;;;;;;5113218;27;38351;-61
2022/09/16 11:29:45;;;;;;;9.73;1.85;;;17.00;88.20;;;;;;5113092;27;37946;-61
2022/09/16 11:32:25;;;;;;;10.90;1.90;;;17.00;86.00;;;;;;5112740;27;39231;-61
2022/09/16 11:35:08;;;;;;;19.13;2.75;;;17.10;87.90;;;;;;5109692;27;36654;-61
2022/09/16 11:37:40;;;;;;;12.45;2.05;;;17.10;87.60;;;;;;5112853;27;39011;-60
2022/09/16 11:40:22;;;;;;;12.38;1.42;;;17.20;86.30;;;;;;5110901;27;39464;-61
2022/09/16 11:43:01;;;;;;;13.32;1.90;;;17.20;85.50;;;;;;5112937;27;38176;-61
2022/09/16 11:45:42;;;;;;;10.50;2.08;;;17.20;85.00;;;;;;5111882;27;36995;-61
2022/09/16 11:48:40;;;;;;;13.82;2.00;;;17.30;84.70;;;;;;5111753;27;37620;-61
2022/09/16 11:51:17;;;;;;;12.90;2.42;;;17.30;84.70;;;;;;5110994;27;38208;-61
2022/09/16 11:54:02;;;;;;;10.63;1.67;;;17.30;85.80;;;;;;5111411;27;39099;-58
2022/09/16 11:56:36;;;;;;;12.50;2.15;;;17.40;87.30;;;;;;5111575;27;36355;-58
2022/09/16 11:59:13;;;;;;;14.35;2.17;;;17.40;87.10;;;;;;5111342;27;38560;-58
2022/09/16 12:01:44;;;;;;;8.75;2.17;;;17.40;86.10;;;;;;5112346;27;38244;-58
2022/09/16 12:04:20;;;;;;;9.30;2.38;;;17.40;86.70;;;;;;5111941;27;36708;-58
2022/09/16 12:06:56;;;;;;;13.20;2.40;;;17.50;86.70;;;;;;5111895;27;36549;-58
2022/09/16 12:09:31;;;;;;;11.60;2.63;;;17.50;88.00;;;;;;5111167;27;36316;-58
2022/09/16 12:12:08;;;;;;;18.27;3.15;;;17.60;86.20;;;;;;5110823;27;38621;-58
2022/09/16 12:14:40;;;;;;;11.27;2.47;;;17.50;86.10;;;;;;5111377;27;36816;-58
2022/09/16 12:17:12;;;;;;;17.95;3.90;;;17.50;86.20;;;;;;5110785;27;36302;-61
2022/09/16 12:19:46;;;;;;;16.67;3.17;;;17.50;86.90;;;;;;5111132;27;37526;-61
2022/09/16 12:22:20;;;;;;;14.70;2.38;;;17.30;85.90;;;;;;5112911;27;38515;-58
2022/09/16 12:24:51;;;;;;;13.45;3.30;;;17.20;85.10;;;;;;5112063;27;36671;-58
2022/09/16 12:27:37;;;;;;;20.15;3.17;;;17.00;84.90;;;;;;5112159;27;35556;-58
2022/09/16 12:30:11;;;;;;;11.45;2.10;;;17.00;85.10;;;;;;5111829;27;38645;-58
2022/09/16 12:32:47;;;;;;;9.35;2.28;;;16.90;86.20;;;;;;5108933;27;38844;-58
2022/09/16 12:35:19;;;;;;;15.80;3.15;;;16.90;87.40;;;;;;5111152;27;38690;-58
2022/09/16 12:37:48;;;;;;;16.52;3.05;;;17.00;88.60;;;;;;5110006;27;35298;-58
2022/09/16 12:40:19;;;;;;;15.63;2.63;;;17.00;88.80;;;;;;5111575;27;39098;-58
2022/09/16 12:43:20;;;;;;;7.63;1.83;;;17.00;89.50;;;;;;5111231;27;39505;-58
2022/09/16 12:46:12;;;;;;;14.20;2.15;;;17.00;87.80;;;;;;5108938;27;38097;-58
2022/09/16 12:49:12;;;;;;;9.68;1.58;;;16.80;89.30;;;;;;5111552;27;36724;-58
2022/09/16 12:52:09;;;;;;;10.30;2.08;;;16.70;87.10;;;;;;5111030;27;38174;-58
2022/09/16 12:54:55;;;;;;;10.70;2.40;;;16.60;87.20;;;;;;5111256;27;39303;-58
2022/09/16 12:57:36;;;;;;;8.55;1.65;;;16.50;88.10;;;;;;5110689;27;37782;-61
2022/09/16 13:00:16;;;;;;;8.50;1.73;;;16.40;89.60;;;;;;5111602;27;37082;-61
2022/09/16 13:02:47;;;;;;;8.90;1.40;;;16.40;90.20;;;;;;5110506;27;37325;-58
2022/09/16 13:05:21;;;;;;;6.15;1.60;;;16.30;90.30;;;;;;5113550;27;36937;-58
2022/09/16 13:07:53;;;;;;;6.05;1.02;;;16.20;90.10;;;;;;5116030;27;37783;-58
2022/09/16 13:10:30;;;;;;;4.93;0.90;;;16.20;90.00;;;;;;5114348;27;35533;-58